Time;durP1;ratioP1;P1;durP2;ratioP2;P2;SDS_P1;SDS_P2;PMS_P1;PMS_P2;Temp;Humidity;BMP_temperature;BMP_pressure;BME280_temperature;BME280_humidity;BME280_pressure;Samples;Min_cycle;Max_cycle;Signal;HPM_P1;HPM_P2
2021/12/04 00:02:05;;;;;;;1.60;1.50;;;4.30;99.90;;;;;;5087391;28;20184;-65
2021/12/04 00:04:34;;;;;;;3.00;2.35;;;4.30;99.90;;;;;;5087086;28;20208;-64
2021/12/04 00:07:00;;;;;;;5.20;1.95;;;4.30;99.90;;;;;;5087061;28;20201;-64
2021/12/04 00:09:29;;;;;;;1.40;1.25;;;4.30;99.90;;;;;;5075925;28;20185;-65
2021/12/04 00:12:05;;;;;;;1.88;1.77;;;4.30;99.90;;;;;;5067075;28;20169;-62
2021/12/04 00:14:32;;;;;;;3.50;1.50;;;4.30;99.90;;;;;;5074556;28;20196;-63
2021/12/04 00:16:58;;;;;;;3.70;1.70;;;4.20;99.90;;;;;;5086766;28;20276;-64
2021/12/04 00:19:25;;;;;;;4.17;2.43;;;4.20;99.90;;;;;;5087001;28;20195;-64
2021/12/04 00:21:52;;;;;;;2.08;1.80;;;4.30;99.90;;;;;;5086937;28;20399;-64
2021/12/04 00:24:18;;;;;;;3.72;2.80;;;4.20;99.90;;;;;;5086810;28;20321;-64
2021/12/04 00:26:44;;;;;;;1.98;1.73;;;4.20;99.90;;;;;;5068976;28;20204;-63
2021/12/04 00:29:11;;;;;;;1.92;1.80;;;4.10;99.90;;;;;;5086733;28;20428;-63
2021/12/04 00:31:37;;;;;;;1.70;1.52;;;4.10;99.90;;;;;;5086847;28;20184;-64
2021/12/04 00:34:03;;;;;;;1.90;1.27;;;4.10;99.90;;;;;;5086810;28;20230;-63
2021/12/04 00:36:53;;;;;;;1.90;1.77;;;4.00;99.90;;;;;;5086666;28;20164;-64
2021/12/04 00:50:17;;;;;;;4.35;2.03;;;4.00;99.90;;;;;;5066827;28;20168;-63
2021/12/04 00:52:42;;;;;;;3.80;2.13;;;3.90;99.90;;;;;;5066478;28;20241;-64
2021/12/04 00:55:08;;;;;;;2.23;2.00;;;3.90;99.90;;;;;;5079174;28;20171;-62
2021/12/04 00:57:34;;;;;;;3.30;2.60;;;3.90;99.90;;;;;;5086764;28;20196;-64
2021/12/04 01:00:00;;;;;;;3.60;2.33;;;3.90;99.90;;;;;;5086722;28;20427;-64
2021/12/04 01:02:26;;;;;;;2.65;1.48;;;3.90;99.90;;;;;;5086560;28;20277;-64
2021/12/04 01:04:52;;;;;;;3.15;2.38;;;3.90;99.90;;;;;;5086595;28;20219;-64
2021/12/04 01:07:20;;;;;;;1.57;1.50;;;3.90;99.90;;;;;;5080082;28;20412;-62
2021/12/04 01:09:46;;;;;;;1.90;1.70;;;3.90;99.90;;;;;;5076877;28;20718;-64
2021/12/04 01:12:12;;;;;;;1.27;1.20;;;3.80;99.90;;;;;;5086566;28;20172;-64
2021/12/04 01:14:37;;;;;;;2.00;1.90;;;3.80;99.90;;;;;;5086517;28;20415;-63
2021/12/04 01:17:04;;;;;;;2.63;1.63;;;3.70;99.90;;;;;;5086157;28;20172;-62
2021/12/04 01:19:30;;;;;;;1.70;1.60;;;3.60;99.90;;;;;;5086506;28;20252;-61
2021/12/04 01:21:56;;;;;;;2.15;2.00;;;3.60;99.90;;;;;;5086185;28;20165;-61
2021/12/04 01:24:22;;;;;;;1.75;1.38;;;3.50;99.90;;;;;;5086202;28;20197;-64
2021/12/04 01:26:49;;;;;;;5.90;2.60;;;3.50;99.90;;;;;;5085816;28;20321;-63
2021/12/04 01:29:16;;;;;;;4.70;3.03;;;3.40;99.90;;;;;;5086334;28;20181;-63
2021/12/04 01:31:43;;;;;;;2.17;1.98;;;3.40;99.90;;;;;;5086340;28;20184;-62
2021/12/04 01:34:09;;;;;;;4.55;3.17;;;3.40;99.90;;;;;;5068519;28;20242;-63
2021/12/04 01:36:35;;;;;;;1.87;1.77;;;3.30;99.90;;;;;;5085588;28;20172;-63
2021/12/04 01:39:02;;;;;;;3.50;2.97;;;3.20;99.90;;;;;;5086253;28;20165;-62
2021/12/04 01:41:27;;;;;;;1.98;1.77;;;3.10;99.90;;;;;;5086249;28;20163;-63
2021/12/04 01:43:53;;;;;;;1.43;1.33;;;3.10;99.90;;;;;;5086224;28;20184;-62
2021/12/04 01:46:19;;;;;;;2.00;1.80;;;3.10;99.90;;;;;;5085898;28;20223;-64
2021/12/04 01:48:44;;;;;;;1.07;0.90;;;3.20;99.90;;;;;;5084649;28;20164;-62
2021/12/04 01:51:10;;;;;;;1.30;1.17;;;3.20;99.90;;;;;;5066174;28;20468;-63
2021/12/04 01:53:36;;;;;;;1.20;1.20;;;3.20;99.90;;;;;;5067977;28;20431;-62
2021/12/04 01:56:03;;;;;;;1.43;1.30;;;3.30;99.90;;;;;;5069592;28;20484;-63
2021/12/04 01:58:29;;;;;;;1.95;1.25;;;3.30;99.90;;;;;;5069361;28;20407;-63
2021/12/04 02:00:56;;;;;;;3.60;2.08;;;3.30;99.90;;;;;;5069405;28;20441;-63
2021/12/04 02:03:22;;;;;;;1.23;1.20;;;3.20;99.90;;;;;;5069287;28;20244;-63
2021/12/04 02:05:50;;;;;;;2.00;1.90;;;3.20;99.90;;;;;;5069317;28;20220;-63
2021/12/04 02:08:22;;;;;;;1.10;1.10;;;3.30;99.90;;;;;;5069149;28;20154;-64
2021/12/04 02:10:50;;;;;;;1.73;1.63;;;3.30;99.90;;;;;;5069466;28;20264;-64
2021/12/04 02:13:17;;;;;;;1.13;1.02;;;3.20;99.90;;;;;;5051805;28;20433;-64
2021/12/04 02:15:44;;;;;;;3.42;1.52;;;3.20;99.90;;;;;;5069305;28;20183;-64
2021/12/04 02:18:12;;;;;;;2.30;1.60;;;3.20;99.90;;;;;;5069483;28;20170;-66
2021/12/04 02:20:37;;;;;;;2.22;1.45;;;3.20;99.90;;;;;;5089248;28;20177;-65
2021/12/04 02:23:06;;;;;;;5.20;2.63;;;3.10;99.90;;;;;;5089043;28;20223;-65
2021/12/04 02:25:32;;;;;;;1.73;1.63;;;3.00;99.90;;;;;;5089094;28;20179;-64
2021/12/04 02:28:00;;;;;;;1.45;1.40;;;2.90;99.90;;;;;;5088878;28;20161;-65
2021/12/04 02:30:29;;;;;;;2.10;1.90;;;2.90;99.90;;;;;;5089027;28;20278;-65
2021/12/04 02:32:55;;;;;;;2.58;2.30;;;2.80;99.90;;;;;;5070964;28;20189;-65
2021/12/04 02:35:22;;;;;;;2.50;2.25;;;2.80;99.90;;;;;;5089041;28;20339;-63
2021/12/04 02:37:48;;;;;;;3.05;2.72;;;2.80;99.90;;;;;;5088678;28;20433;-64
2021/12/04 02:40:20;;;;;;;5.90;1.90;;;2.80;99.90;;;;;;5075099;28;20219;-64
2021/12/04 02:42:46;;;;;;;4.03;2.45;;;2.80;99.90;;;;;;5051308;28;20392;-64
2021/12/04 02:45:13;;;;;;;2.10;2.00;;;2.70;99.90;;;;;;5068684;28;20205;-64
2021/12/04 02:47:39;;;;;;;2.42;1.60;;;2.70;99.90;;;;;;5068257;28;20225;-64
2021/12/04 02:50:07;;;;;;;2.03;1.83;;;2.70;99.90;;;;;;5068597;28;20293;-63
2021/12/04 02:52:34;;;;;;;2.67;1.60;;;2.70;99.90;;;;;;5068310;28;20281;-64
2021/12/04 02:55:01;;;;;;;1.67;1.58;;;2.60;99.90;;;;;;5050936;28;20173;-64
2021/12/04 02:57:28;;;;;;;2.75;2.53;;;2.60;99.90;;;;;;5069345;28;20280;-64
2021/12/04 02:59:54;;;;;;;2.25;2.10;;;2.60;99.90;;;;;;5068376;28;20390;-64
2021/12/04 03:02:21;;;;;;;3.22;2.40;;;2.60;99.90;;;;;;5068490;28;20188;-64
2021/12/04 03:04:56;;;;;;;2.17;2.00;;;2.60;99.90;;;;;;5067452;28;20285;-65
2021/12/04 03:07:23;;;;;;;5.00;1.77;;;2.60;99.90;;;;;;5067926;28;20211;-64
2021/12/04 03:09:49;;;;;;;1.83;1.73;;;2.60;99.90;;;;;;5082458;28;20173;-64
2021/12/04 03:12:22;;;;;;;3.13;1.88;;;2.60;99.90;;;;;;5088175;28;20455;-64
2021/12/04 03:14:48;;;;;;;1.38;1.30;;;2.60;99.90;;;;;;5088195;28;20204;-65
2021/12/04 03:17:17;;;;;;;2.47;2.27;;;2.70;99.90;;;;;;5087911;28;20261;-65
2021/12/04 03:19:43;;;;;;;3.08;2.30;;;2.60;99.90;;;;;;5088171;28;20470;-65
2021/12/04 03:22:09;;;;;;;2.37;2.13;;;2.60;99.90;;;;;;5088177;28;20164;-64
2021/12/04 03:24:38;;;;;;;1.90;1.80;;;2.70;99.90;;;;;;5072540;28;20432;-64
2021/12/04 03:27:04;;;;;;;5.75;2.53;;;2.60;99.90;;;;;;5079748;28;20200;-64
2021/12/04 03:29:31;;;;;;;2.13;2.03;;;2.60;99.90;;;;;;5071207;28;20183;-65
2021/12/04 03:42:50;;;;;;;1.90;1.52;;;2.70;99.90;;;;;;5087695;28;20430;-65
2021/12/04 03:45:16;;;;;;;3.93;3.30;;;2.70;99.90;;;;;;5087610;28;20168;-64
2021/12/04 03:47:46;;;;;;;3.63;3.10;;;2.70;99.90;;;;;;5087321;28;20474;-64
2021/12/04 03:50:12;;;;;;;5.32;3.00;;;2.60;99.90;;;;;;5087672;28;20389;-64
2021/12/04 03:52:38;;;;;;;2.35;2.15;;;2.60;99.90;;;;;;5084383;28;20173;-65
2021/12/04 03:55:05;;;;;;;1.83;1.73;;;2.60;99.90;;;;;;5067356;28;20176;-64
2021/12/04 03:57:32;;;;;;;2.97;2.72;;;2.60;99.90;;;;;;5067072;28;20331;-64
2021/12/04 04:00:01;;;;;;;1.65;1.55;;;2.60;99.90;;;;;;5067324;28;20173;-64
2021/12/04 04:02:27;;;;;;;2.42;2.17;;;2.60;99.90;;;;;;5067232;28;20274;-64
2021/12/04 04:04:54;;;;;;;1.90;1.67;;;2.60;99.90;;;;;;5067317;28;20215;-63
2021/12/04 04:07:21;;;;;;;6.47;3.05;;;2.60;99.90;;;;;;5066829;28;20204;-64
2021/12/04 04:09:46;;;;;;;3.67;3.28;;;2.60;99.90;;;;;;5067120;28;20162;-64
2021/12/04 04:12:12;;;;;;;4.37;2.30;;;2.60;99.90;;;;;;5067089;28;20203;-64
2021/12/04 04:14:38;;;;;;;2.50;2.30;;;2.60;99.90;;;;;;5067052;28;20310;-64
2021/12/04 04:17:04;;;;;;;2.63;2.53;;;2.70;99.90;;;;;;5049189;28;20203;-63
2021/12/04 04:19:30;;;;;;;2.55;2.28;;;2.70;99.90;;;;;;5074125;28;20169;-65
2021/12/04 04:21:56;;;;;;;2.83;2.37;;;2.70;99.90;;;;;;5087005;28;20175;-64
2021/12/04 04:24:24;;;;;;;3.97;2.45;;;2.80;99.90;;;;;;5086840;28;20514;-64
2021/12/04 04:26:49;;;;;;;6.60;2.78;;;2.80;99.90;;;;;;5086668;28;20274;-64
2021/12/04 04:29:15;;;;;;;3.07;2.43;;;2.80;99.90;;;;;;5086940;28;20210;-64
2021/12/04 04:31:49;;;;;;;2.83;2.53;;;2.80;99.90;;;;;;5086843;28;20219;-64
2021/12/04 04:34:23;;;;;;;2.28;1.90;;;2.80;99.90;;;;;;5086491;28;20435;-64
2021/12/04 04:58:46;;;;;;;3.70;3.13;;;2.90;99.90;;;;;;5066379;28;20164;-63
2021/12/04 05:12:14;;;;;;;2.22;2.10;;;2.90;99.90;;;;;;5066507;28;20180;-64
2021/12/04 05:14:42;;;;;;;3.20;3.00;;;2.90;99.90;;;;;;5066455;28;20229;-65
2021/12/04 05:17:26;;;;;;;2.45;1.98;;;2.90;99.90;;;;;;5066207;28;20158;-65
2021/12/04 05:19:53;;;;;;;4.47;1.45;;;2.90;99.90;;;;;;5085071;28;20417;-65
2021/12/04 05:22:20;;;;;;;6.90;3.05;;;2.90;99.90;;;;;;5086479;28;20161;-65
2021/12/04 05:24:45;;;;;;;3.65;3.35;;;2.90;99.90;;;;;;5086447;28;20281;-66
2021/12/04 05:27:11;;;;;;;2.83;2.40;;;3.00;99.90;;;;;;5086142;28;20232;-65
2021/12/04 05:29:37;;;;;;;2.83;2.00;;;3.00;99.90;;;;;;5090261;28;20403;-65
2021/12/04 05:32:05;;;;;;;5.80;2.60;;;3.00;99.90;;;;;;5090247;28;20297;-65
2021/12/04 05:34:31;;;;;;;2.30;2.22;;;2.90;99.90;;;;;;5089586;28;20192;-66
2021/12/04 05:36:58;;;;;;;5.55;2.85;;;2.90;99.90;;;;;;5089793;28;20272;-65
2021/12/04 05:39:24;;;;;;;2.05;1.88;;;3.00;99.90;;;;;;5090022;28;20176;-65
2021/12/04 05:41:51;;;;;;;3.45;1.75;;;2.90;99.90;;;;;;5090077;28;20169;-65
2021/12/04 05:44:19;;;;;;;3.80;2.53;;;3.00;99.90;;;;;;5072302;28;20192;-65
2021/12/04 05:46:58;;;;;;;2.67;2.47;;;3.00;99.90;;;;;;5089484;28;20250;-64
2021/12/04 05:49:33;;;;;;;4.68;2.30;;;3.00;99.90;;;;;;5070601;28;20248;-64
2021/12/04 05:57:05;;;;;;;3.60;2.53;;;3.00;99.90;;;;;;5089519;28;20281;-64
2021/12/04 05:59:31;;;;;;;3.13;2.83;;;3.10;99.90;;;;;;5089651;28;20168;-66
2021/12/04 06:01:57;;;;;;;2.88;2.30;;;3.10;99.90;;;;;;5089659;28;20164;-65
2021/12/04 06:04:24;;;;;;;1.20;1.05;;;3.10;99.90;;;;;;5089349;28;20193;-64
2021/12/04 06:06:50;;;;;;;2.78;1.77;;;3.10;99.90;;;;;;5089240;28;20200;-63
2021/12/04 06:09:16;;;;;;;2.42;2.25;;;3.20;99.90;;;;;;5089251;28;20168;-64
2021/12/04 06:11:41;;;;;;;2.73;2.53;;;3.10;99.90;;;;;;5089558;28;20176;-64
2021/12/04 06:14:08;;;;;;;2.60;2.40;;;3.10;99.90;;;;;;5089270;28;20181;-62
2021/12/04 06:16:34;;;;;;;2.95;2.10;;;3.10;99.90;;;;;;5089026;28;20431;-64
2021/12/04 06:19:09;;;;;;;3.17;2.97;;;3.10;99.90;;;;;;5089351;28;20181;-64
2021/12/04 06:24:19;;;;;;;7.80;2.00;;;3.20;99.90;;;;;;5078720;28;20247;-64
2021/12/04 06:26:45;;;;;;;2.37;2.17;;;3.10;99.90;;;;;;5068696;28;20197;-65
2021/12/04 06:29:10;;;;;;;2.80;2.60;;;3.10;99.90;;;;;;5069110;28;20169;-64
2021/12/04 06:31:36;;;;;;;3.43;2.00;;;3.20;99.90;;;;;;5068937;28;20184;-65
2021/12/04 06:34:02;;;;;;;6.40;2.77;;;3.10;99.90;;;;;;5068978;28;20295;-65
2021/12/04 06:36:28;;;;;;;4.40;2.70;;;3.10;99.90;;;;;;5068713;28;20229;-65
2021/12/04 06:38:54;;;;;;;3.10;2.07;;;3.10;99.90;;;;;;5080672;28;20184;-65
2021/12/04 06:41:20;;;;;;;2.97;2.30;;;3.20;99.90;;;;;;5088134;28;20443;-65
2021/12/04 06:43:49;;;;;;;3.20;2.53;;;3.20;99.90;;;;;;5087240;28;20211;-65
2021/12/04 06:46:17;;;;;;;2.05;1.95;;;3.20;99.90;;;;;;5068724;28;20325;-65
2021/12/04 06:48:54;;;;;;;2.42;2.22;;;3.20;99.90;;;;;;5068776;28;20172;-63
2021/12/04 06:56:16;;;;;;;5.60;1.83;;;3.30;99.90;;;;;;5068549;28;20277;-65
2021/12/04 06:58:42;;;;;;;3.55;2.15;;;3.40;99.90;;;;;;5071736;28;20169;-64
2021/12/04 07:01:10;;;;;;;4.10;3.77;;;3.40;99.90;;;;;;5088595;28;20172;-65
2021/12/04 07:03:37;;;;;;;1.75;1.70;;;3.40;99.90;;;;;;5088274;28;20300;-64
2021/12/04 07:06:03;;;;;;;8.90;3.75;;;3.50;99.90;;;;;;5088357;28;20257;-64
2021/12/04 07:08:29;;;;;;;1.55;1.42;;;3.50;99.90;;;;;;5088109;28;20175;-64
2021/12/04 07:10:55;;;;;;;2.77;2.57;;;3.60;99.90;;;;;;5088463;28;20381;-64
2021/12/04 07:13:20;;;;;;;3.43;2.87;;;3.70;99.90;;;;;;5085620;28;20613;-65
2021/12/04 07:15:46;;;;;;;2.10;1.87;;;3.70;99.90;;;;;;5068230;28;20177;-64
2021/12/04 07:18:13;;;;;;;2.90;2.03;;;3.70;99.90;;;;;;5067942;28;20165;-64
2021/12/04 07:20:39;;;;;;;2.20;2.10;;;3.80;99.90;;;;;;5068177;28;20228;-64
2021/12/04 07:23:05;;;;;;;3.70;2.20;;;3.90;99.90;;;;;;5067956;28;20328;-65
2021/12/04 07:25:31;;;;;;;5.10;2.63;;;3.90;99.90;;;;;;5067930;28;20396;-64
2021/12/04 07:27:58;;;;;;;3.13;2.17;;;4.00;99.90;;;;;;5067683;28;20173;-65
2021/12/04 07:30:25;;;;;;;2.00;1.90;;;4.00;99.90;;;;;;5067991;28;20211;-64
2021/12/04 07:32:51;;;;;;;4.78;3.75;;;4.00;99.90;;;;;;5067764;28;20281;-64
2021/12/04 07:35:17;;;;;;;1.75;1.65;;;4.00;99.90;;;;;;5067941;28;20158;-64
2021/12/04 07:37:44;;;;;;;3.20;2.17;;;4.00;99.90;;;;;;5067450;28;20274;-65
2021/12/04 07:40:10;;;;;;;1.45;1.35;;;4.00;99.90;;;;;;5067794;28;20173;-65
2021/12/04 07:42:35;;;;;;;2.03;1.77;;;4.10;99.90;;;;;;5067760;28;20185;-65
2021/12/04 07:45:01;;;;;;;2.97;2.77;;;4.10;99.90;;;;;;5087372;28;20187;-63
2021/12/04 07:47:27;;;;;;;3.97;2.55;;;4.20;99.90;;;;;;5087256;28;20196;-65
2021/12/04 07:49:53;;;;;;;2.03;1.93;;;4.20;99.90;;;;;;5087738;28;20266;-63
2021/12/04 07:52:19;;;;;;;2.65;2.30;;;4.30;99.90;;;;;;5087237;28;20210;-64
2021/12/04 07:54:46;;;;;;;1.63;1.53;;;4.40;99.90;;;;;;5087429;28;20185;-64
2021/12/04 07:57:11;;;;;;;2.95;1.83;;;4.40;99.90;;;;;;5087233;28;20177;-65
2021/12/04 07:59:37;;;;;;;3.83;3.17;;;4.40;99.90;;;;;;5069672;28;20244;-64
2021/12/04 08:02:04;;;;;;;3.38;1.65;;;4.50;99.90;;;;;;5087397;28;20164;-64
2021/12/04 08:04:29;;;;;;;20.05;2.30;;;4.50;99.90;;;;;;5087286;28;20391;-66
2021/12/04 08:06:55;;;;;;;5.47;2.30;;;4.50;99.90;;;;;;5086931;28;20200;-65
2021/12/04 08:09:21;;;;;;;3.60;2.20;;;4.60;99.90;;;;;;5087350;28;20322;-65
2021/12/04 08:11:49;;;;;;;1.50;1.40;;;4.60;99.90;;;;;;5087294;28;20441;-65
2021/12/04 08:14:15;;;;;;;2.72;1.83;;;4.70;99.90;;;;;;5068605;28;20428;-65
2021/12/04 08:16:41;;;;;;;2.00;1.83;;;4.70;99.90;;;;;;5066847;28;20192;-65
2021/12/04 08:19:07;;;;;;;1.67;1.67;;;4.70;99.90;;;;;;5066915;28;20403;-65
2021/12/04 08:21:32;;;;;;;1.90;1.80;;;4.70;99.90;;;;;;5066978;28;20196;-63
2021/12/04 08:23:58;;;;;;;1.77;1.67;;;4.80;99.90;;;;;;5069746;28;20213;-66
2021/12/04 08:26:24;;;;;;;1.90;1.80;;;4.80;99.90;;;;;;5086746;28;20448;-66
2021/12/04 08:28:51;;;;;;;2.90;2.70;;;4.90;99.90;;;;;;5087027;28;20374;-65
2021/12/04 08:31:17;;;;;;;1.42;1.33;;;5.00;99.90;;;;;;5069716;28;20240;-65
2021/12/04 08:33:43;;;;;;;2.90;2.08;;;5.00;99.90;;;;;;5086921;28;20269;-65
2021/12/04 08:36:10;;;;;;;2.80;2.27;;;5.10;99.90;;;;;;5086936;28;20369;-68
2021/12/04 08:38:36;;;;;;;2.88;1.77;;;5.10;99.90;;;;;;5086394;28;20161;-64
2021/12/04 08:41:03;;;;;;;1.60;1.52;;;5.10;99.90;;;;;;5086651;28;20184;-65
2021/12/04 08:43:29;;;;;;;2.15;1.70;;;5.20;99.90;;;;;;5086836;28;20184;-65
2021/12/04 08:45:59;;;;;;;3.45;2.35;;;5.30;99.90;;;;;;5069161;28;20283;-63
2021/12/04 08:48:25;;;;;;;1.60;1.50;;;5.40;99.90;;;;;;5086471;28;20205;-66
2021/12/04 08:50:51;;;;;;;4.75;1.83;;;5.40;99.90;;;;;;5086778;28;20196;-64
2021/12/04 08:53:17;;;;;;;1.83;1.53;;;5.40;99.90;;;;;;5084843;28;20295;-64
2021/12/04 08:55:43;;;;;;;1.87;1.77;;;5.50;99.90;;;;;;5066740;28;20169;-63
2021/12/04 08:58:10;;;;;;;2.13;1.92;;;5.60;99.90;;;;;;5066333;28;20162;-64
2021/12/04 09:00:48;;;;;;;2.17;1.63;;;5.60;99.90;;;;;;5066528;28;20173;-63
2021/12/04 09:03:17;;;;;;;1.58;1.48;;;5.70;99.90;;;;;;5068096;28;20255;-64
2021/12/04 09:05:43;;;;;;;2.38;1.98;;;5.80;99.90;;;;;;5053021;28;20304;-63
2021/12/04 09:08:09;;;;;;;5.75;2.90;;;5.90;99.90;;;;;;5070302;28;20176;-64
2021/12/04 09:10:40;;;;;;;2.88;2.45;;;5.90;99.90;;;;;;5070556;28;20178;-64
2021/12/04 09:13:06;;;;;;;2.17;1.95;;;6.00;99.90;;;;;;5070477;28;20265;-64
2021/12/04 09:15:32;;;;;;;2.03;1.93;;;6.10;99.90;;;;;;5076008;28;20187;-64
2021/12/04 09:17:59;;;;;;;1.20;1.13;;;6.20;99.90;;;;;;5090241;28;20410;-64
2021/12/04 09:20:28;;;;;;;1.83;1.33;;;6.10;99.90;;;;;;5090547;28;20156;-64
2021/12/04 09:22:53;;;;;;;1.95;1.65;;;6.20;99.90;;;;;;5090400;28;20407;-64
2021/12/04 09:25:25;;;;;;;2.40;1.53;;;6.30;99.90;;;;;;5090575;28;20174;-64
2021/12/04 09:28:18;;;;;;;1.30;1.20;;;6.40;99.90;;;;;;5072410;28;20202;-66
2021/12/04 10:00:27;;;;;;;3.58;2.30;;;6.60;99.90;;;;;;5079056;28;20307;-63
2021/12/04 10:03:43;;;;;;;27.38;11.30;;;6.50;99.90;;;;;;5089345;28;20214;-65
2021/12/04 10:14:42;;;;;;;3.70;3.35;;;6.70;99.90;;;;;;5088751;28;20242;-63
2021/12/04 10:19:30;;;;;;;2.67;2.47;;;6.80;99.90;;;;;;5089408;28;20164;-65
2021/12/04 10:22:31;;;;;;;2.35;2.15;;;6.90;99.90;;;;;;5071722;28;20388;-64
2021/12/04 10:33:25;;;;;;;3.60;2.63;;;7.10;99.90;;;;;;5068980;28;20430;-64
2021/12/04 10:35:50;;;;;;;2.87;2.57;;;7.10;99.90;;;;;;5068820;28;20162;-64
2021/12/04 10:38:25;;;;;;;1.80;1.70;;;7.30;99.90;;;;;;5068643;28;20320;-64
2021/12/04 10:40:53;;;;;;;2.42;2.22;;;7.30;99.90;;;;;;5068981;28;20275;-64
2021/12/04 10:43:26;;;;;;;3.10;2.13;;;7.40;99.90;;;;;;5068808;28;20341;-65
2021/12/04 10:45:57;;;;;;;3.55;3.35;;;7.40;99.90;;;;;;5068687;28;20184;-64
2021/12/04 10:48:28;;;;;;;2.60;2.33;;;7.40;99.90;;;;;;5068446;28;20365;-64
2021/12/04 10:51:10;;;;;;;2.95;2.72;;;7.50;99.90;;;;;;5087476;28;20230;-65
2021/12/04 10:53:45;;;;;;;4.80;2.25;;;7.50;99.90;;;;;;5071170;28;20204;-64
2021/12/04 10:56:27;;;;;;;3.60;3.17;;;7.60;99.90;;;;;;5088785;28;20409;-66
2021/12/04 10:59:16;;;;;;;2.42;2.25;;;7.70;99.90;;;;;;5071169;28;20169;-64
2021/12/04 11:01:53;;;;;;;3.80;2.67;;;7.80;99.90;;;;;;5088689;28;20184;-64
2021/12/04 11:04:52;;;;;;;3.50;3.17;;;7.90;99.90;;;;;;5088162;28;20400;-65
2021/12/04 11:18:50;;;;;;;1.13;1.13;;;8.20;99.90;;;;;;5089715;28;20172;-65
2021/12/04 11:41:09;;;;;;;0.77;0.77;;;9.30;99.90;;;;;;5026659;28;20295;-66
2021/12/04 11:43:58;;;;;;;0.68;0.68;;;9.40;99.90;;;;;;5026579;28;20281;-67
2021/12/04 11:46:44;;;;;;;1.38;0.70;;;9.50;99.90;;;;;;5006493;28;20424;-65
2021/12/04 11:49:22;;;;;;;0.60;0.60;;;9.60;99.90;;;;;;5006949;28;20187;-65
2021/12/04 11:52:01;;;;;;;0.85;0.85;;;9.60;99.90;;;;;;5006738;28;20295;-64
2021/12/04 11:54:32;;;;;;;0.65;0.60;;;9.70;99.90;;;;;;5006968;28;20195;-66
2021/12/04 11:57:03;;;;;;;2.05;0.50;;;9.70;99.90;;;;;;5006600;28;20246;-65
2021/12/04 11:59:34;;;;;;;0.40;0.40;;;9.80;99.90;;;;;;5013134;28;20414;-65
2021/12/04 12:02:03;;;;;;;0.80;0.80;;;9.80;99.90;;;;;;5026457;28;20434;-66
2021/12/04 12:04:45;;;;;;;1.83;0.57;;;9.80;99.90;;;;;;5026203;28;20290;-66
2021/12/04 12:07:19;;;;;;;3.58;0.80;;;9.90;99.90;;;;;;5026064;28;20206;-64
2021/12/04 12:09:49;;;;;;;0.88;0.70;;;9.90;99.90;;;;;;5026321;28;20167;-66
2021/12/04 12:12:17;;;;;;;0.63;0.50;;;10.00;99.90;;;;;;5040265;28;20173;-65
2021/12/04 12:14:51;;;;;;;0.40;0.40;;;10.10;99.90;;;;;;5077168;28;20401;-65
2021/12/04 12:17:37;;;;;;;0.43;0.43;;;10.10;99.90;;;;;;5086970;28;20253;-66
2021/12/04 12:20:14;;;;;;;0.50;0.50;;;10.20;99.90;;;;;;5069499;28;20239;-65
2021/12/04 12:34:05;;;;;;;0.82;0.82;;;10.50;99.90;;;;;;5066746;28;20197;-63
2021/12/04 12:36:32;;;;;;;0.50;0.50;;;10.60;99.90;;;;;;5066230;28;20200;-64
2021/12/04 12:39:06;;;;;;;1.60;0.60;;;10.60;99.90;;;;;;5066062;28;20166;-65
2021/12/04 12:41:42;;;;;;;1.40;0.30;;;10.60;99.90;;;;;;5066756;28;20180;-66
2021/12/04 12:44:25;;;;;;;1.02;0.88;;;10.60;99.90;;;;;;5066530;28;20185;-65
2021/12/04 12:46:55;;;;;;;0.40;0.40;;;10.60;99.90;;;;;;5066882;28;20300;-67
2021/12/04 12:49:46;;;;;;;0.40;0.30;;;10.60;99.90;;;;;;5067103;28;20154;-66
2021/12/04 12:52:24;;;;;;;0.50;0.50;;;10.60;99.90;;;;;;5066139;28;20196;-66
2021/12/04 12:55:12;;;;;;;0.70;0.70;;;10.70;99.90;;;;;;5066587;28;20289;-65
2021/12/04 12:57:41;;;;;;;0.40;0.40;;;10.60;99.90;;;;;;5058443;28;20177;-65
2021/12/04 13:14:25;;;;;;;0.60;0.32;;;10.50;99.90;;;;;;5009431;28;20361;-65
2021/12/04 13:17:07;;;;;;;0.50;0.50;;;10.60;99.90;;;;;;5054987;28;20216;-65
2021/12/04 13:19:37;;;;;;;0.60;0.60;;;10.50;99.90;;;;;;5066380;28;20170;-65
2021/12/04 13:22:08;;;;;;;0.60;0.60;;;10.60;99.90;;;;;;5066548;28;20179;-65
2021/12/04 13:24:37;;;;;;;0.40;0.35;;;10.60;99.90;;;;;;5066978;28;20348;-64
2021/12/04 13:29:41;;;;;;;0.40;0.40;;;10.60;99.90;;;;;;5085980;28;20157;-65
2021/12/04 13:32:10;;;;;;;0.77;0.40;;;10.50;99.90;;;;;;5086598;28;20153;-65
2021/12/04 13:34:38;;;;;;;0.60;0.60;;;10.50;99.90;;;;;;5069112;28;20259;-65
2021/12/04 13:37:04;;;;;;;0.77;0.68;;;10.50;99.90;;;;;;5087290;28;20207;-65
2021/12/04 13:39:31;;;;;;;0.40;0.40;;;10.60;99.90;;;;;;5086986;28;20166;-65
2021/12/04 13:41:57;;;;;;;0.30;0.30;;;10.50;99.90;;;;;;5085972;28;20312;-65
2021/12/04 13:44:25;;;;;;;0.60;0.60;;;10.50;99.90;;;;;;5085854;28;20192;-65
2021/12/04 13:46:56;;;;;;;0.40;0.40;;;10.50;99.90;;;;;;5068245;28;20464;-65
2021/12/04 13:49:30;;;;;;;0.50;0.50;;;10.60;99.90;;;;;;5087930;28;20171;-64
2021/12/04 13:52:04;;;;;;;0.70;0.70;;;10.60;99.90;;;;;;5089925;28;20175;-65
2021/12/04 13:54:31;;;;;;;0.60;0.40;;;10.50;99.90;;;;;;5089819;28;20184;-65
2021/12/04 13:56:57;;;;;;;0.60;0.60;;;10.60;99.90;;;;;;5086987;28;20169;-65
2021/12/04 13:59:25;;;;;;;0.88;0.88;;;10.50;99.90;;;;;;5051865;28;20195;-66
2021/12/04 14:01:51;;;;;;;0.68;0.60;;;10.50;99.90;;;;;;5069346;28;20173;-65
2021/12/04 14:04:18;;;;;;;0.50;0.50;;;10.50;99.90;;;;;;5074743;28;20204;-65
2021/12/04 14:06:55;;;;;;;0.73;0.50;;;10.50;99.90;;;;;;5089019;28;20285;-65
2021/12/04 14:09:23;;;;;;;0.40;0.35;;;10.40;99.90;;;;;;5072036;28;20396;-65
2021/12/04 14:11:51;;;;;;;0.50;0.50;;;10.40;99.90;;;;;;5071739;28;20176;-65
2021/12/04 14:14:21;;;;;;;0.47;0.47;;;10.40;99.90;;;;;;5089435;28;20172;-66
2021/12/04 14:16:51;;;;;;;0.65;0.65;;;10.20;99.90;;;;;;5089118;28;20239;-64
2021/12/04 14:19:21;;;;;;;0.88;0.77;;;10.20;99.90;;;;;;5089031;28;20333;-66
2021/12/04 14:22:03;;;;;;;0.50;0.47;;;10.10;99.90;;;;;;5089146;28;20236;-64
2021/12/04 14:24:31;;;;;;;7.57;0.80;;;10.00;99.90;;;;;;5089216;27;20204;-65
2021/12/04 14:26:59;;;;;;;0.63;0.60;;;9.90;99.90;;;;;;5088553;28;20311;-65
2021/12/04 14:29:31;;;;;;;0.35;0.35;;;9.90;99.90;;;;;;5088945;28;20165;-65
2021/12/04 14:31:57;;;;;;;0.50;0.50;;;9.80;99.90;;;;;;5089142;28;20160;-66
2021/12/04 14:34:24;;;;;;;1.00;1.00;;;9.80;99.90;;;;;;5077999;28;20192;-66
2021/12/04 14:37:10;;;;;;;0.52;0.43;;;9.80;99.90;;;;;;5068710;28;20170;-64
2021/12/04 14:39:38;;;;;;;0.52;0.52;;;9.80;99.90;;;;;;5068826;28;20172;-65
2021/12/04 14:42:16;;;;;;;0.52;0.52;;;9.70;99.90;;;;;;5068667;28;20161;-66
2021/12/04 14:44:46;;;;;;;0.57;0.57;;;9.70;99.90;;;;;;5068644;28;20223;-65
2021/12/04 14:47:13;;;;;;;0.60;0.60;;;9.80;99.90;;;;;;5068488;28;20290;-66
2021/12/04 14:49:41;;;;;;;0.77;0.77;;;9.70;99.90;;;;;;5068595;28;20169;-65
2021/12/04 14:52:07;;;;;;;0.70;0.70;;;9.70;99.90;;;;;;5068586;28;20208;-65
2021/12/04 14:54:35;;;;;;;0.53;0.50;;;9.70;99.90;;;;;;5076150;28;20304;-65
2021/12/04 14:57:11;;;;;;;0.60;0.60;;;9.70;99.90;;;;;;5088342;28;20512;-65
2021/12/04 14:59:37;;;;;;;0.82;0.73;;;9.70;99.90;;;;;;5088334;28;20239;-65
2021/12/04 15:02:13;;;;;;;0.90;0.80;;;9.70;99.90;;;;;;5087867;28;20372;-66
2021/12/04 15:04:40;;;;;;;0.35;0.35;;;9.70;99.90;;;;;;5088402;28;20357;-65
2021/12/04 15:07:06;;;;;;;1.20;1.10;;;9.60;99.90;;;;;;5087915;28;20377;-65
2021/12/04 15:09:31;;;;;;;0.70;0.70;;;9.60;99.90;;;;;;5078264;28;20161;-65
2021/12/04 15:11:59;;;;;;;0.90;0.83;;;9.60;99.90;;;;;;5068206;28;20432;-65
2021/12/04 15:14:32;;;;;;;1.08;0.93;;;9.60;99.90;;;;;;5068136;28;20175;-67
2021/12/04 15:17:04;;;;;;;0.73;0.73;;;9.60;99.90;;;;;;5068048;28;20166;-65
2021/12/04 15:19:45;;;;;;;0.60;0.60;;;9.60;99.90;;;;;;5068095;28;20179;-66
2021/12/04 15:22:18;;;;;;;0.50;0.50;;;9.60;99.90;;;;;;5067950;28;20472;-65
2021/12/04 15:24:45;;;;;;;0.68;0.60;;;9.60;99.90;;;;;;5068114;28;20401;-66
2021/12/04 15:27:15;;;;;;;0.43;0.43;;;9.60;99.90;;;;;;5067616;28;20361;-65
2021/12/04 15:29:44;;;;;;;0.40;0.40;;;9.60;99.90;;;;;;5050176;28;20209;-65
2021/12/04 15:32:12;;;;;;;0.70;0.70;;;9.60;99.90;;;;;;5067850;28;20174;-65
2021/12/04 15:34:53;;;;;;;0.60;0.50;;;9.60;99.90;;;;;;5067676;28;20209;-65
2021/12/04 15:37:26;;;;;;;0.45;0.45;;;9.50;99.90;;;;;;5067368;28;20165;-66
2021/12/04 15:39:53;;;;;;;0.60;0.60;;;9.50;99.90;;;;;;5067715;28;20177;-64
2021/12/04 15:42:29;;;;;;;0.60;0.60;;;9.60;99.90;;;;;;5067728;28;20165;-66
2021/12/04 15:47:44;;;;;;;0.63;0.55;;;9.50;99.90;;;;;;5067378;28;20216;-65
2021/12/04 15:50:43;;;;;;;1.10;1.10;;;9.50;99.90;;;;;;5067599;28;20157;-65
2021/12/04 15:53:12;;;;;;;0.80;0.80;;;9.50;99.90;;;;;;5067373;28;20196;-64
2021/12/04 15:55:45;;;;;;;0.80;0.80;;;9.50;99.90;;;;;;5067472;28;20162;-66
2021/12/04 15:58:14;;;;;;;1.20;1.10;;;9.40;99.90;;;;;;5049531;28;20227;-65
2021/12/04 16:00:43;;;;;;;0.57;0.57;;;9.50;99.90;;;;;;5067371;28;20401;-64
2021/12/04 16:03:13;;;;;;;0.40;0.40;;;9.50;99.90;;;;;;5067353;28;20219;-65
2021/12/04 16:05:43;;;;;;;1.85;0.77;;;9.60;99.90;;;;;;5049679;28;20310;-65